sensor_id;sensor_type;location;lat;lon;timestamp;temperature;humidity
41985;DHT22;28319;48.116;10.818;2023-07-13T00:05:01;19.70;99.90
41985;DHT22;28319;48.116;10.818;2023-07-13T00:10:06;19.80;99.90
41985;DHT22;28319;48.116;10.818;2023-07-13T00:15:13;19.60;99.90
41985;DHT22;28319;48.116;10.818;2023-07-13T00:20:16;19.70;99.90
41985;DHT22;28319;48.116;10.818;2023-07-13T00:25:20;19.70;99.90
41985;DHT22;28319;48.116;10.818;2023-07-13T00:30:24;19.80;99.90
41985;DHT22;28319;48.116;10.818;2023-07-13T00:35:26;19.80;99.90
41985;DHT22;28319;48.116;10.818;2023-07-13T00:40:30;19.80;99.90
41985;DHT22;28319;48.116;10.818;2023-07-13T00:51:14;19.60;99.90
41985;DHT22;28319;48.116;10.818;2023-07-13T00:56:19;19.60;99.90
41985;DHT22;28319;48.116;10.818;2023-07-13T01:01:21;19.70;99.90
41985;DHT22;28319;48.116;10.818;2023-07-13T01:06:23;19.60;99.90
41985;DHT22;28319;48.116;10.818;2023-07-13T01:11:27;19.60;99.90
41985;DHT22;28319;48.116;10.818;2023-07-13T01:16:31;19.60;99.90
41985;DHT22;28319;48.116;10.818;2023-07-13T01:21:35;19.80;99.90
41985;DHT22;28319;48.116;10.818;2023-07-13T01:26:38;19.80;99.90
41985;DHT22;28319;48.116;10.818;2023-07-13T01:31:40;20.00;99.90
41985;DHT22;28319;48.116;10.818;2023-07-13T01:36:44;20.10;99.90
41985;DHT22;28319;48.116;10.818;2023-07-13T01:41:46;19.90;99.90
41985;DHT22;28319;48.116;10.818;2023-07-13T01:46:48;19.50;99.90
41985;DHT22;28319;48.116;10.818;2023-07-13T01:51:51;19.30;99.90
41985;DHT22;28319;48.116;10.818;2023-07-13T01:56:53;19.00;99.90
41985;DHT22;28319;48.116;10.818;2023-07-13T02:01:55;18.70;99.90
41985;DHT22;28319;48.116;10.818;2023-07-13T02:06:58;18.50;99.90
41985;DHT22;28319;48.116;10.818;2023-07-13T02:12:00;18.40;99.90
41985;DHT22;28319;48.116;10.818;2023-07-13T02:17:02;18.40;99.90
41985;DHT22;28319;48.116;10.818;2023-07-13T02:22:06;18.50;99.90
41985;DHT22;28319;48.116;10.818;2023-07-13T02:27:08;18.50;99.90
41985;DHT22;28319;48.116;10.818;2023-07-13T02:32:11;18.70;99.90
41985;DHT22;28319;48.116;10.818;2023-07-13T02:37:16;18.80;99.90
41985;DHT22;28319;48.116;10.818;2023-07-13T02:42:18;18.70;99.90
41985;DHT22;28319;48.116;10.818;2023-07-13T02:47:21;18.60;99.90
41985;DHT22;28319;48.116;10.818;2023-07-13T02:52:24;18.80;99.90
41985;DHT22;28319;48.116;10.818;2023-07-13T02:57:26;18.70;99.90
41985;DHT22;28319;48.116;10.818;2023-07-13T03:02:28;18.80;99.90
41985;DHT22;28319;48.116;10.818;2023-07-13T03:07:32;18.70;99.90
41985;DHT22;28319;48.116;10.818;2023-07-13T03:12:34;18.70;99.90
41985;DHT22;28319;48.116;10.818;2023-07-13T03:17:36;18.60;99.90
41985;DHT22;28319;48.116;10.818;2023-07-13T03:22:40;18.70;99.90
41985;DHT22;28319;48.116;10.818;2023-07-13T03:27:42;18.80;99.90
41985;DHT22;28319;48.116;10.818;2023-07-13T03:32:44;18.70;99.90
41985;DHT22;28319;48.116;10.818;2023-07-13T03:37:47;18.70;99.90
41985;DHT22;28319;48.116;10.818;2023-07-13T03:42:50;18.80;99.90
41985;DHT22;28319;48.116;10.818;2023-07-13T03:47:52;18.80;99.90
41985;DHT22;28319;48.116;10.818;2023-07-13T03:52:56;18.80;99.90
41985;DHT22;28319;48.116;10.818;2023-07-13T03:58:25;18.70;99.90
41985;DHT22;28319;48.116;10.818;2023-07-13T04:03:24;18.70;99.90
41985;DHT22;28319;48.116;10.818;2023-07-13T04:08:29;18.60;99.90
41985;DHT22;28319;48.116;10.818;2023-07-13T04:13:31;18.60;99.90
41985;DHT22;28319;48.116;10.818;2023-07-13T04:18:35;18.70;99.90
41985;DHT22;28319;48.116;10.818;2023-07-13T04:23:38;18.60;99.90
41985;DHT22;28319;48.116;10.818;2023-07-13T04:28:40;18.60;99.90
41985;DHT22;28319;48.116;10.818;2023-07-13T04:33:43;18.60;99.90
41985;DHT22;28319;48.116;10.818;2023-07-13T04:38:46;18.60;99.90
41985;DHT22;28319;48.116;10.818;2023-07-13T04:43:51;18.60;99.90
41985;DHT22;28319;48.116;10.818;2023-07-13T04:48:55;18.70;99.90
41985;DHT22;28319;48.116;10.818;2023-07-13T04:53:58;18.70;99.90
41985;DHT22;28319;48.116;10.818;2023-07-13T04:59:00;18.80;99.90
41985;DHT22;28319;48.116;10.818;2023-07-13T05:04:04;18.70;99.90
41985;DHT22;28319;48.116;10.818;2023-07-13T05:09:06;18.80;99.90
41985;DHT22;28319;48.116;10.818;2023-07-13T05:14:08;18.70;99.90
41985;DHT22;28319;48.116;10.818;2023-07-13T05:19:12;18.80;99.90
41985;DHT22;28319;48.116;10.818;2023-07-13T05:24:14;18.80;99.90
41985;DHT22;28319;48.116;10.818;2023-07-13T05:29:17;18.90;99.90
41985;DHT22;28319;48.116;10.818;2023-07-13T05:34:21;18.80;99.90
41985;DHT22;28319;48.116;10.818;2023-07-13T05:39:24;18.80;99.90
41985;DHT22;28319;48.116;10.818;2023-07-13T05:44:26;18.70;99.90
41985;DHT22;28319;48.116;10.818;2023-07-13T05:49:30;18.50;99.90
41985;DHT22;28319;48.116;10.818;2023-07-13T05:54:32;18.30;99.90
41985;DHT22;28319;48.116;10.818;2023-07-13T05:59:35;18.20;99.90
41985;DHT22;28319;48.116;10.818;2023-07-13T06:04:40;18.30;99.90
41985;DHT22;28319;48.116;10.818;2023-07-13T06:09:42;18.10;99.90
41985;DHT22;28319;48.116;10.818;2023-07-13T06:14:44;18.10;99.90
41985;DHT22;28319;48.116;10.818;2023-07-13T06:19:48;18.10;99.90
41985;DHT22;28319;48.116;10.818;2023-07-13T06:24:50;18.10;99.90
41985;DHT22;28319;48.116;10.818;2023-07-13T06:29:52;18.20;99.90
41985;DHT22;28319;48.116;10.818;2023-07-13T06:34:56;18.20;99.90
41985;DHT22;28319;48.116;10.818;2023-07-13T06:39:58;18.20;99.90
41985;DHT22;28319;48.116;10.818;2023-07-13T06:45:00;18.00;99.90
41985;DHT22;28319;48.116;10.818;2023-07-13T06:50:03;18.20;99.90
41985;DHT22;28319;48.116;10.818;2023-07-13T06:55:06;18.20;99.90
41985;DHT22;28319;48.116;10.818;2023-07-13T07:00:09;18.10;99.90
41985;DHT22;28319;48.116;10.818;2023-07-13T07:05:14;18.20;99.90
41985;DHT22;28319;48.116;10.818;2023-07-13T07:10:16;18.50;99.90
41985;DHT22;28319;48.116;10.818;2023-07-13T07:15:18;18.50;99.90
41985;DHT22;28319;48.116;10.818;2023-07-13T07:20:22;18.50;99.90
41985;DHT22;28319;48.116;10.818;2023-07-13T07:25:24;18.70;99.90
41985;DHT22;28319;48.116;10.818;2023-07-13T07:30:26;18.80;99.90
41985;DHT22;28319;48.116;10.818;2023-07-13T07:35:29;18.80;99.90
41985;DHT22;28319;48.116;10.818;2023-07-13T07:40:31;18.80;99.90
41985;DHT22;28319;48.116;10.818;2023-07-13T07:45:33;18.80;99.90
41985;DHT22;28319;48.116;10.818;2023-07-13T07:50:37;18.90;99.90
41985;DHT22;28319;48.116;10.818;2023-07-13T07:55:39;19.00;99.90
41985;DHT22;28319;48.116;10.818;2023-07-13T08:00:41;19.10;99.90
41985;DHT22;28319;48.116;10.818;2023-07-13T08:05:45;19.00;99.90
41985;DHT22;28319;48.116;10.818;2023-07-13T08:10:47;19.20;99.90
41985;DHT22;28319;48.116;10.818;2023-07-13T08:15:50;19.20;99.90
41985;DHT22;28319;48.116;10.818;2023-07-13T08:20:54;19.10;99.90
41985;DHT22;28319;48.116;10.818;2023-07-13T08:25:57;19.10;99.90
41985;DHT22;28319;48.116;10.818;2023-07-13T08:31:02;19.10;99.90
41985;DHT22;28319;48.116;10.818;2023-07-13T08:36:07;19.10;99.90
41985;DHT22;28319;48.116;10.818;2023-07-13T08:41:17;19.30;99.90
41985;DHT22;28319;48.116;10.818;2023-07-13T08:46:24;19.20;99.90
41985;DHT22;28319;48.116;10.818;2023-07-13T08:51:35;19.50;99.90
41985;DHT22;28319;48.116;10.818;2023-07-13T08:56:40;19.60;99.90
41985;DHT22;28319;48.116;10.818;2023-07-13T09:01:59;19.60;99.90
41985;DHT22;28319;48.116;10.818;2023-07-13T09:07:07;19.50;99.90
41985;DHT22;28319;48.116;10.818;2023-07-13T09:12:17;19.60;99.90
41985;DHT22;28319;48.116;10.818;2023-07-13T09:17:23;19.60;99.90
41985;DHT22;28319;48.116;10.818;2023-07-13T09:22:29;19.70;99.90
41985;DHT22;28319;48.116;10.818;2023-07-13T09:27:36;19.90;99.90
41985;DHT22;28319;48.116;10.818;2023-07-13T09:32:41;19.90;99.90
41985;DHT22;28319;48.116;10.818;2023-07-13T09:37:46;20.10;99.90
41985;DHT22;28319;48.116;10.818;2023-07-13T09:42:49;20.40;99.90
41985;DHT22;28319;48.116;10.818;2023-07-13T09:47:58;20.50;99.90
41985;DHT22;28319;48.116;10.818;2023-07-13T09:53:03;20.70;99.90
41985;DHT22;28319;48.116;10.818;2023-07-13T09:58:09;20.70;99.90
41985;DHT22;28319;48.116;10.818;2023-07-13T10:03:16;20.90;99.90
41985;DHT22;28319;48.116;10.818;2023-07-13T10:08:23;21.20;99.90
41985;DHT22;28319;48.116;10.818;2023-07-13T10:13:31;21.40;99.90
41985;DHT22;28319;48.116;10.818;2023-07-13T10:18:43;21.50;99.80
41985;DHT22;28319;48.116;10.818;2023-07-13T10:23:51;21.50;97.10
41985;DHT22;28319;48.116;10.818;2023-07-13T10:28:57;21.90;97.80
41985;DHT22;28319;48.116;10.818;2023-07-13T10:34:00;22.10;96.60
41985;DHT22;28319;48.116;10.818;2023-07-13T10:39:05;22.00;96.70
41985;DHT22;28319;48.116;10.818;2023-07-13T10:44:15;22.20;93.60
41985;DHT22;28319;48.116;10.818;2023-07-13T10:49:20;22.40;95.30
41985;DHT22;28319;48.116;10.818;2023-07-13T10:54:31;22.80;92.50
41985;DHT22;28319;48.116;10.818;2023-07-13T10:59:33;22.40;92.30
41985;DHT22;28319;48.116;10.818;2023-07-13T11:04:40;22.30;93.70
41985;DHT22;28319;48.116;10.818;2023-07-13T11:09:49;22.40;92.70
41985;DHT22;28319;48.116;10.818;2023-07-13T11:15:03;22.30;93.70
41985;DHT22;28319;48.116;10.818;2023-07-13T11:20:35;22.40;91.00
41985;DHT22;28319;48.116;10.818;2023-07-13T11:25:58;22.40;92.50
41985;DHT22;28319;48.116;10.818;2023-07-13T11:31:22;22.30;93.70
41985;DHT22;28319;48.116;10.818;2023-07-13T11:36:30;22.30;92.60
41985;DHT22;28319;48.116;10.818;2023-07-13T11:41:37;21.60;92.60
41985;DHT22;28319;48.116;10.818;2023-07-13T11:46:46;21.90;93.70
41985;DHT22;28319;48.116;10.818;2023-07-13T11:51:49;21.80;93.50
41985;DHT22;28319;48.116;10.818;2023-07-13T11:56:59;21.50;94.20
41985;DHT22;28319;48.116;10.818;2023-07-13T12:02:14;21.60;94.60
41985;DHT22;28319;48.116;10.818;2023-07-13T12:07:19;21.60;93.60
41985;DHT22;28319;48.116;10.818;2023-07-13T12:12:22;21.80;95.20
41985;DHT22;28319;48.116;10.818;2023-07-13T12:17:25;22.20;95.80
41985;DHT22;28319;48.116;10.818;2023-07-13T12:22:28;22.30;94.90
41985;DHT22;28319;48.116;10.818;2023-07-13T12:27:32;22.60;93.60
41985;DHT22;28319;48.116;10.818;2023-07-13T12:32:34;23.50;94.00
41985;DHT22;28319;48.116;10.818;2023-07-13T12:37:35;23.50;93.70
41985;DHT22;28319;48.116;10.818;2023-07-13T12:42:40;24.10;92.50
41985;DHT22;28319;48.116;10.818;2023-07-13T12:47:43;24.30;92.10
41985;DHT22;28319;48.116;10.818;2023-07-13T12:52:51;24.70;92.90
41985;DHT22;28319;48.116;10.818;2023-07-13T12:57:58;24.60;91.90
41985;DHT22;28319;48.116;10.818;2023-07-13T13:03:05;24.10;92.10
41985;DHT22;28319;48.116;10.818;2023-07-13T13:08:09;24.20;92.20
41985;DHT22;28319;48.116;10.818;2023-07-13T13:13:14;24.70;92.30
41985;DHT22;28319;48.116;10.818;2023-07-13T13:18:17;24.60;90.20
41985;DHT22;28319;48.116;10.818;2023-07-13T13:23:20;24.80;88.50
41985;DHT22;28319;48.116;10.818;2023-07-13T13:28:25;24.80;88.50
41985;DHT22;28319;48.116;10.818;2023-07-13T13:33:27;24.50;88.80
41985;DHT22;28319;48.116;10.818;2023-07-13T13:38:36;25.20;90.00
41985;DHT22;28319;48.116;10.818;2023-07-13T13:43:41;25.30;88.60
41985;DHT22;28319;48.116;10.818;2023-07-13T13:48:44;25.50;87.80
41985;DHT22;28319;48.116;10.818;2023-07-13T13:53:47;25.60;89.40
41985;DHT22;28319;48.116;10.818;2023-07-13T13:58:51;25.60;90.10
41985;DHT22;28319;48.116;10.818;2023-07-13T14:03:53;25.80;90.60
41985;DHT22;28319;48.116;10.818;2023-07-13T14:08:55;25.80;89.80
41985;DHT22;28319;48.116;10.818;2023-07-13T14:13:59;25.70;87.30
41985;DHT22;28319;48.116;10.818;2023-07-13T14:19:04;25.50;88.20
41985;DHT22;28319;48.116;10.818;2023-07-13T14:24:06;25.20;86.90
41985;DHT22;28319;48.116;10.818;2023-07-13T14:29:14;25.20;90.00
41985;DHT22;28319;48.116;10.818;2023-07-13T14:34:17;25.60;89.70
41985;DHT22;28319;48.116;10.818;2023-07-13T14:39:21;25.80;88.50
41985;DHT22;28319;48.116;10.818;2023-07-13T14:44:27;25.30;87.20
41985;DHT22;28319;48.116;10.818;2023-07-13T14:49:31;25.40;88.70
41985;DHT22;28319;48.116;10.818;2023-07-13T14:54:34;25.50;87.00
41985;DHT22;28319;48.116;10.818;2023-07-13T14:59:40;25.40;88.00
41985;DHT22;28319;48.116;10.818;2023-07-13T15:04:44;25.50;88.70
41985;DHT22;28319;48.116;10.818;2023-07-13T15:09:46;25.40;87.90
41985;DHT22;28319;48.116;10.818;2023-07-13T15:14:50;25.50;89.70
41985;DHT22;28319;48.116;10.818;2023-07-13T15:19:52;25.40;88.00
41985;DHT22;28319;48.116;10.818;2023-07-13T15:24:54;25.60;88.90
41985;DHT22;28319;48.116;10.818;2023-07-13T15:29:57;25.00;88.00
41985;DHT22;28319;48.116;10.818;2023-07-13T15:34:59;25.10;90.00
41985;DHT22;28319;48.116;10.818;2023-07-13T15:40:01;25.10;89.10
41985;DHT22;28319;48.116;10.818;2023-07-13T15:45:15;25.00;88.20
41985;DHT22;28319;48.116;10.818;2023-07-13T15:50:20;24.90;89.00
41985;DHT22;28319;48.116;10.818;2023-07-13T15:55:22;24.90;89.50
41985;DHT22;28319;48.116;10.818;2023-07-13T16:00:27;25.00;90.00
41985;DHT22;28319;48.116;10.818;2023-07-13T16:05:29;24.80;90.60
41985;DHT22;28319;48.116;10.818;2023-07-13T16:10:35;25.00;89.00
41985;DHT22;28319;48.116;10.818;2023-07-13T16:15:39;25.00;87.30
41985;DHT22;28319;48.116;10.818;2023-07-13T16:20:42;24.90;90.50
41985;DHT22;28319;48.116;10.818;2023-07-13T16:25:45;24.80;90.00
41985;DHT22;28319;48.116;10.818;2023-07-13T16:30:50;24.60;90.20
41985;DHT22;28319;48.116;10.818;2023-07-13T16:35:52;24.30;90.30
41985;DHT22;28319;48.116;10.818;2023-07-13T16:40:54;24.40;91.20
41985;DHT22;28319;48.116;10.818;2023-07-13T16:45:59;24.30;90.80
41985;DHT22;28319;48.116;10.818;2023-07-13T16:51:04;24.20;90.70
41985;DHT22;28319;48.116;10.818;2023-07-13T16:56:14;24.40;91.90
41985;DHT22;28319;48.116;10.818;2023-07-13T17:01:18;24.30;92.00
41985;DHT22;28319;48.116;10.818;2023-07-13T17:06:22;24.40;91.70
41985;DHT22;28319;48.116;10.818;2023-07-13T17:11:27;24.50;92.20
41985;DHT22;28319;48.116;10.818;2023-07-13T17:16:32;24.40;91.40
41985;DHT22;28319;48.116;10.818;2023-07-13T17:21:35;24.20;92.10
41985;DHT22;28319;48.116;10.818;2023-07-13T17:26:37;24.30;91.40
41985;DHT22;28319;48.116;10.818;2023-07-13T17:31:42;24.40;92.10
41985;DHT22;28319;48.116;10.818;2023-07-13T17:36:45;24.30;92.30
41985;DHT22;28319;48.116;10.818;2023-07-13T17:41:48;24.20;93.00
41985;DHT22;28319;48.116;10.818;2023-07-13T17:46:53;24.10;93.20
41985;DHT22;28319;48.116;10.818;2023-07-13T17:51:56;24.10;92.50
41985;DHT22;28319;48.116;10.818;2023-07-13T17:56:59;24.10;92.90
41985;DHT22;28319;48.116;10.818;2023-07-13T18:02:08;24.00;92.50
41985;DHT22;28319;48.116;10.818;2023-07-13T18:07:11;23.90;92.40
41985;DHT22;28319;48.116;10.818;2023-07-13T18:12:18;23.80;92.80
41985;DHT22;28319;48.116;10.818;2023-07-13T18:17:21;23.70;92.80
41985;DHT22;28319;48.116;10.818;2023-07-13T18:22:23;23.60;93.20
41985;DHT22;28319;48.116;10.818;2023-07-13T18:27:25;23.50;93.80
41985;DHT22;28319;48.116;10.818;2023-07-13T18:32:29;23.50;94.00
41985;DHT22;28319;48.116;10.818;2023-07-13T18:37:33;23.40;94.40
41985;DHT22;28319;48.116;10.818;2023-07-13T18:42:35;23.30;94.70
41985;DHT22;28319;48.116;10.818;2023-07-13T18:47:39;23.20;95.40
41985;DHT22;28319;48.116;10.818;2023-07-13T18:52:42;23.30;96.20
41985;DHT22;28319;48.116;10.818;2023-07-13T18:57:45;23.30;96.00
41985;DHT22;28319;48.116;10.818;2023-07-13T19:02:49;23.30;96.30
41985;DHT22;28319;48.116;10.818;2023-07-13T19:07:53;23.30;96.60
41985;DHT22;28319;48.116;10.818;2023-07-13T19:12:58;22.90;96.40
41985;DHT22;28319;48.116;10.818;2023-07-13T19:18:11;22.60;97.60
41985;DHT22;28319;48.116;10.818;2023-07-13T19:23:21;22.30;98.60
41985;DHT22;28319;48.116;10.818;2023-07-13T19:28:29;22.30;98.40
41985;DHT22;28319;48.116;10.818;2023-07-13T19:33:34;22.20;98.30
41985;DHT22;28319;48.116;10.818;2023-07-13T19:38:36;22.30;98.50
41985;DHT22;28319;48.116;10.818;2023-07-13T19:43:38;22.10;98.60
41985;DHT22;28319;48.116;10.818;2023-07-13T19:48:42;21.90;98.70
41985;DHT22;28319;48.116;10.818;2023-07-13T19:53:46;22.00;98.70
41985;DHT22;28319;48.116;10.818;2023-07-13T19:58:48;21.90;98.90
41985;DHT22;28319;48.116;10.818;2023-07-13T20:03:52;21.90;98.90
41985;DHT22;28319;48.116;10.818;2023-07-13T20:08:54;21.70;98.90
41985;DHT22;28319;48.116;10.818;2023-07-13T20:13:56;21.50;98.80
41985;DHT22;28319;48.116;10.818;2023-07-13T20:19:00;21.40;99.00
41985;DHT22;28319;48.116;10.818;2023-07-13T20:24:13;21.30;99.10
41985;DHT22;28319;48.116;10.818;2023-07-13T20:29:17;21.40;99.60
41985;DHT22;28319;48.116;10.818;2023-07-13T20:34:22;21.50;99.50
41985;DHT22;28319;48.116;10.818;2023-07-13T20:39:26;21.50;99.90
41985;DHT22;28319;48.116;10.818;2023-07-13T20:44:28;21.50;99.90
41985;DHT22;28319;48.116;10.818;2023-07-13T20:49:31;21.50;99.90
41985;DHT22;28319;48.116;10.818;2023-07-13T20:54:33;21.40;99.90
41985;DHT22;28319;48.116;10.818;2023-07-13T20:59:36;21.30;99.90
41985;DHT22;28319;48.116;10.818;2023-07-13T21:04:39;21.10;99.90
41985;DHT22;28319;48.116;10.818;2023-07-13T21:09:41;20.80;99.90
41985;DHT22;28319;48.116;10.818;2023-07-13T21:14:43;20.90;99.90
41985;DHT22;28319;48.116;10.818;2023-07-13T21:19:46;20.80;99.90
41985;DHT22;28319;48.116;10.818;2023-07-13T21:24:48;20.90;99.90
41985;DHT22;28319;48.116;10.818;2023-07-13T21:29:50;21.00;99.90
41985;DHT22;28319;48.116;10.818;2023-07-13T21:34:55;20.90;99.90
41985;DHT22;28319;48.116;10.818;2023-07-13T21:39:57;20.60;99.90
41985;DHT22;28319;48.116;10.818;2023-07-13T21:44:59;20.60;99.90
41985;DHT22;28319;48.116;10.818;2023-07-13T21:50:03;20.60;99.90
41985;DHT22;28319;48.116;10.818;2023-07-13T21:55:13;20.60;99.90
41985;DHT22;28319;48.116;10.818;2023-07-13T22:00:20;20.50;99.90
41985;DHT22;28319;48.116;10.818;2023-07-13T22:05:24;20.40;99.90
41985;DHT22;28319;48.116;10.818;2023-07-13T22:10:27;20.30;99.90
41985;DHT22;28319;48.116;10.818;2023-07-13T22:15:29;20.20;99.90
41985;DHT22;28319;48.116;10.818;2023-07-13T22:20:32;19.80;99.90
41985;DHT22;28319;48.116;10.818;2023-07-13T22:25:34;19.30;99.90
41985;DHT22;28319;48.116;10.818;2023-07-13T22:30:37;19.20;99.90
41985;DHT22;28319;48.116;10.818;2023-07-13T22:35:40;19.00;99.90
41985;DHT22;28319;48.116;10.818;2023-07-13T22:40:43;18.90;99.90
41985;DHT22;28319;48.116;10.818;2023-07-13T22:45:47;18.90;99.90
41985;DHT22;28319;48.116;10.818;2023-07-13T22:50:52;19.10;99.90
41985;DHT22;28319;48.116;10.818;2023-07-13T22:55:54;19.00;99.90
41985;DHT22;28319;48.116;10.818;2023-07-13T23:00:59;19.00;99.90
41985;DHT22;28319;48.116;10.818;2023-07-13T23:06:03;19.20;99.90
41985;DHT22;28319;48.116;10.818;2023-07-13T23:11:09;19.20;99.90
41985;DHT22;28319;48.116;10.818;2023-07-13T23:16:12;19.30;99.90
41985;DHT22;28319;48.116;10.818;2023-07-13T23:21:18;19.40;99.90
41985;DHT22;28319;48.116;10.818;2023-07-13T23:26:23;19.40;99.90
41985;DHT22;28319;48.116;10.818;2023-07-13T23:31:27;19.40;99.90
41985;DHT22;28319;48.116;10.818;2023-07-13T23:36:31;19.50;99.90
41985;DHT22;28319;48.116;10.818;2023-07-13T23:41:33;19.30;99.90
41985;DHT22;28319;48.116;10.818;2023-07-13T23:46:40;19.20;99.90
41985;DHT22;28319;48.116;10.818;2023-07-13T23:51:43;19.30;99.90
41985;DHT22;28319;48.116;10.818;2023-07-13T23:56:46;19.10;99.90
